Time;durP1;ratioP1;P1;durP2;ratioP2;P2;SDS_P1;SDS_P2;PMS_P1;PMS_P2;Temp;Humidity;BMP_temperature;BMP_pressure;BME280_temperature;BME280_humidity;BME280_pressure;Samples;Min_cycle;Max_cycle;Signal;HPM_P1;HPM_P2
2023/03/28 00:02:08;;;;;;;15.63;2.60;;;;;;;;;;4889626;29;20035;-72
2023/03/28 00:04:36;;;;;;;15.45;3.15;;;;;;;;;;4887215;29;20029;-73
2023/03/28 00:07:02;;;;;;;14.80;2.53;;;;;;;;;;4913945;29;20021;-73
2023/03/28 00:09:28;;;;;;;26.48;2.47;;;;;;;;;;4927093;29;20013;-73
2023/03/28 00:11:55;;;;;;;10.82;2.20;;;;;;;;;;4892300;29;20042;-72
2023/03/28 00:14:21;;;;;;;18.75;2.97;;;;;;;;;;4925599;29;20052;-72
2023/03/28 00:16:47;;;;;;;23.80;2.40;;;;;;;;;;4890661;29;20032;-71
2023/03/28 00:19:15;;;;;;;15.70;2.80;;;;;;;;;;4881834;29;20025;-71
2023/03/28 00:21:45;;;;;;;19.08;2.08;;;;;;;;;;4890401;29;20025;-72
2023/03/28 00:24:13;;;;;;;16.58;1.98;;;;;;;;;;4881900;29;20024;-72
2023/03/28 00:26:40;;;;;;;10.43;1.70;;;;;;;;;;4894705;29;20063;-72
2023/03/28 00:29:08;;;;;;;14.82;1.67;;;;;;;;;;4894721;29;20419;-73
2023/03/28 00:31:36;;;;;;;12.20;1.77;;;;;;;;;;4893315;29;20047;-71
2023/03/28 00:34:02;;;;;;;15.80;2.05;;;;;;;;;;4891080;29;20036;-72
2023/03/28 00:36:31;;;;;;;14.57;2.88;;;;;;;;;;4892206;29;20514;-72
2023/03/28 00:38:58;;;;;;;10.05;2.08;;;;;;;;;;4893877;29;20079;-72
2023/03/28 00:41:25;;;;;;;14.10;1.75;;;;;;;;;;4894688;29;20028;-72
2023/03/28 00:43:52;;;;;;;13.27;1.88;;;;;;;;;;4893393;29;20036;-72
2023/03/28 00:46:21;;;;;;;12.27;2.75;;;;;;;;;;4926523;29;20494;-71
2023/03/28 00:48:54;;;;;;;8.27;1.67;;;;;;;;;;4893405;29;20035;-71
2023/03/28 00:51:24;;;;;;;16.08;2.55;;;;;;;;;;4885875;29;20020;-71
2023/03/28 00:53:51;;;;;;;11.63;2.05;;;;;;;;;;4887323;29;20032;-72
2023/03/28 00:56:18;;;;;;;16.98;1.70;;;;;;;;;;4894801;29;20024;-72
2023/03/28 00:58:46;;;;;;;10.02;1.73;;;;;;;;;;4891048;29;20478;-72
2023/03/28 01:01:14;;;;;;;14.57;2.03;;;;;;;;;;4890972;29;20128;-72
2023/03/28 01:03:45;;;;;;;13.32;2.17;;;;;;;;;;4890652;29;20386;-72
2023/03/28 01:06:13;;;;;;;10.63;1.63;;;;;;;;;;4916319;29;20067;-73
2023/03/28 01:08:41;;;;;;;14.13;2.38;;;;;;;;;;4891276;29;20080;-73
2023/03/28 01:11:08;;;;;;;6.38;1.50;;;;;;;;;;4891259;29;20056;-72
2023/03/28 01:13:37;;;;;;;13.18;2.83;;;;;;;;;;4881573;29;20029;-71
2023/03/28 01:16:04;;;;;;;16.85;1.65;;;;;;;;;;4905342;29;20052;-71
2023/03/28 01:18:33;;;;;;;12.25;2.92;;;;;;;;;;4888287;29;20549;-71
2023/03/28 01:21:06;;;;;;;15.13;2.58;;;;;;;;;;4894029;29;20027;-71
2023/03/28 01:23:32;;;;;;;10.65;2.10;;;;;;;;;;4926145;29;20028;-71
2023/03/28 01:26:13;;;;;;;19.83;1.65;;;;;;;;;;4919718;29;20060;-71
2023/03/28 01:28:58;;;;;;;12.45;2.00;;;;;;;;;;4892360;29;20031;-71
2023/03/28 01:31:24;;;;;;;8.98;1.55;;;;;;;;;;4888275;29;20118;-71
2023/03/28 01:33:50;;;;;;;17.30;4.15;;;;;;;;;;4894818;29;20036;-71
2023/03/28 01:36:35;;;;;;;13.77;1.42;;;;;;;;;;4882830;29;20032;-71
2023/03/28 01:39:20;;;;;;;25.88;3.38;;;;;;;;;;4894885;29;20029;-71
2023/03/28 01:41:59;;;;;;;10.38;2.00;;;;;;;;;;4881726;29;20075;-72
2023/03/28 01:44:25;;;;;;;11.30;2.83;;;;;;;;;;4892426;29;20476;-75
2023/03/28 01:46:56;;;;;;;9.20;1.83;;;;;;;;;;4892531;29;20374;-75
2023/03/28 01:49:36;;;;;;;23.92;5.78;;;;;;;;;;4893015;29;20135;-74
2023/03/28 01:52:14;;;;;;;13.13;2.08;;;;;;;;;;4894106;29;20047;-71
2023/03/28 01:54:50;;;;;;;7.90;1.40;;;;;;;;;;4895594;29;20028;-72
2023/03/28 01:57:24;;;;;;;11.38;1.63;;;;;;;;;;4892336;29;20113;-71
2023/03/28 01:59:50;;;;;;;13.35;1.77;;;;;;;;;;4890834;29;20048;-72
2023/03/28 02:02:16;;;;;;;8.35;1.80;;;;;;;;;;4879388;29;20029;-72
2023/03/28 02:04:44;;;;;;;17.70;2.10;;;;;;;;;;4895570;29;20036;-72
2023/03/28 02:07:11;;;;;;;13.45;2.05;;;;;;;;;;4883943;29;20029;-72
2023/03/28 02:09:42;;;;;;;7.80;1.60;;;;;;;;;;4893813;29;20033;-72
2023/03/28 02:12:14;;;;;;;20.50;2.15;;;;;;;;;;4891094;29;20028;-72
2023/03/28 02:14:42;;;;;;;9.73;1.57;;;;;;;;;;4908812;29;20363;-71
2023/03/28 02:17:14;;;;;;;12.88;2.95;;;;;;;;;;4891389;29;20028;-72
2023/03/28 02:19:41;;;;;;;11.52;1.73;;;;;;;;;;4895419;29;20028;-72
2023/03/28 02:22:20;;;;;;;14.38;2.00;;;;;;;;;;4893179;29;20081;-72
2023/03/28 02:24:50;;;;;;;9.65;1.52;;;;;;;;;;4925211;29;20519;-71
2023/03/28 02:27:17;;;;;;;17.45;1.83;;;;;;;;;;4890944;29;20036;-71
2023/03/28 02:29:43;;;;;;;10.13;1.67;;;;;;;;;;4895635;29;20036;-71
2023/03/28 02:32:09;;;;;;;17.33;2.05;;;;;;;;;;4891519;29;20028;-72
2023/03/28 02:34:35;;;;;;;7.38;1.38;;;;;;;;;;4893128;29;20111;-71
2023/03/28 02:37:15;;;;;;;12.50;2.28;;;;;;;;;;4893603;29;20034;-72
2023/03/28 02:39:51;;;;;;;11.63;1.73;;;;;;;;;;4925861;29;20025;-71
2023/03/28 02:42:26;;;;;;;9.70;2.15;;;;;;;;;;4890766;29;20036;-71
2023/03/28 02:45:08;;;;;;;12.10;1.95;;;;;;;;;;4891042;29;20028;-71
2023/03/28 02:47:38;;;;;;;13.63;2.05;;;;;;;;;;4898275;29;20100;-71
2023/03/28 02:50:24;;;;;;;11.55;2.38;;;;;;;;;;4919222;29;20024;-73
2023/03/28 02:52:54;;;;;;;14.40;1.83;;;;;;;;;;4892429;29;20040;-71
2023/03/28 02:55:29;;;;;;;10.57;1.98;;;;;;;;;;4914159;29;20035;-72
2023/03/28 02:58:00;;;;;;;18.85;1.63;;;;;;;;;;4894577;29;20024;-72
2023/03/28 03:00:27;;;;;;;25.33;2.08;;;;;;;;;;4897540;29;20037;-71
2023/03/28 03:02:53;;;;;;;11.23;2.47;;;;;;;;;;4896992;29;20127;-72
2023/03/28 03:05:20;;;;;;;8.55;1.35;;;;;;;;;;4895372;29;20028;-72
2023/03/28 03:07:48;;;;;;;14.68;2.47;;;;;;;;;;4898290;29;20577;-72
2023/03/28 03:10:16;;;;;;;12.75;2.13;;;;;;;;;;4897370;29;20036;-72
2023/03/28 03:12:42;;;;;;;8.07;2.05;;;;;;;;;;4898879;29;20040;-72
2023/03/28 03:15:10;;;;;;;13.77;1.77;;;;;;;;;;4894623;29;20039;-73
2023/03/28 03:17:37;;;;;;;9.55;2.85;;;;;;;;;;4895143;29;20028;-72
2023/03/28 03:20:06;;;;;;;9.90;1.48;;;;;;;;;;4893052;29;20059;-74
2023/03/28 03:22:33;;;;;;;8.95;1.73;;;;;;;;;;4894247;29;20040;-72
2023/03/28 03:25:05;;;;;;;10.70;2.42;;;;;;;;;;4891152;29;20072;-72
2023/03/28 03:27:31;;;;;;;10.02;1.70;;;;;;;;;;4893487;29;20036;-72
2023/03/28 03:29:58;;;;;;;11.93;2.58;;;;;;;;;;4892910;29;20032;-72
2023/03/28 03:32:24;;;;;;;17.50;1.58;;;;;;;;;;4895589;29;20055;-71
2023/03/28 03:34:51;;;;;;;13.43;2.17;;;;;;;;;;4890946;29;20032;-71
2023/03/28 03:37:17;;;;;;;17.92;3.05;;;;;;;;;;4897828;29;20024;-71
2023/03/28 03:39:43;;;;;;;16.48;2.65;;;;;;;;;;4911829;29;20032;-72
2023/03/28 03:42:10;;;;;;;14.25;2.15;;;;;;;;;;4892929;29;20089;-72
2023/03/28 03:44:36;;;;;;;16.00;2.08;;;;;;;;;;4881988;29;20069;-72
2023/03/28 03:47:03;;;;;;;8.95;2.17;;;;;;;;;;4898181;29;20029;-72
2023/03/28 03:49:29;;;;;;;12.93;2.58;;;;;;;;;;4890917;29;20037;-73
2023/03/28 03:51:55;;;;;;;16.30;2.35;;;;;;;;;;4896850;29;20035;-73
2023/03/28 03:54:21;;;;;;;14.73;2.55;;;;;;;;;;4895984;29;20024;-72
2023/03/28 03:56:47;;;;;;;16.88;2.67;;;;;;;;;;4907259;29;20029;-72
2023/03/28 03:59:14;;;;;;;7.72;2.58;;;;;;;;;;4895630;29;20017;-72
2023/03/28 04:01:43;;;;;;;20.50;2.60;;;;;;;;;;4894583;29;20024;-72
2023/03/28 04:04:12;;;;;;;7.70;2.03;;;;;;;;;;4893727;29;20359;-72
2023/03/28 04:06:39;;;;;;;12.07;2.20;;;;;;;;;;4896935;29;20035;-72
2023/03/28 04:09:15;;;;;;;13.80;4.18;;;;;;;;;;4890858;29;20116;-73
2023/03/28 04:11:41;;;;;;;6.50;3.28;;;;;;;;;;4895140;29;20020;-72
2023/03/28 04:14:07;;;;;;;10.27;2.85;;;;;;;;;;4910171;29;20029;-73
2023/03/28 04:16:33;;;;;;;8.82;2.03;;;;;;;;;;4918499;29;20025;-72
2023/03/28 04:19:00;;;;;;;13.02;2.65;;;;;;;;;;4888571;29;20027;-73
2023/03/28 04:21:28;;;;;;;14.05;2.78;;;;;;;;;;4895814;29;20032;-72
2023/03/28 04:23:55;;;;;;;10.35;2.17;;;;;;;;;;4895715;29;20041;-72
2023/03/28 04:26:24;;;;;;;14.63;2.25;;;;;;;;;;4919021;29;20049;-73
2023/03/28 04:28:54;;;;;;;10.20;2.10;;;;;;;;;;4904179;29;20024;-72
2023/03/28 04:31:20;;;;;;;15.70;2.50;;;;;;;;;;4894862;29;20029;-72
2023/03/28 04:33:47;;;;;;;15.90;1.67;;;;;;;;;;4896362;29;20024;-71
2023/03/28 04:36:15;;;;;;;10.02;1.65;;;;;;;;;;4894612;29;20024;-72
2023/03/28 04:38:44;;;;;;;9.23;1.90;;;;;;;;;;4897038;29;20032;-73
2023/03/28 04:41:11;;;;;;;9.88;2.17;;;;;;;;;;4894909;29;20040;-73
2023/03/28 04:43:37;;;;;;;13.15;2.58;;;;;;;;;;4888552;29;20080;-73
2023/03/28 04:46:03;;;;;;;16.73;2.38;;;;;;;;;;4904902;29;20040;-72
2023/03/28 04:48:30;;;;;;;13.77;2.35;;;;;;;;;;4895844;29;20027;-72
2023/03/28 04:50:56;;;;;;;9.40;2.15;;;;;;;;;;4894047;29;20040;-72
2023/03/28 04:53:23;;;;;;;14.52;2.25;;;;;;;;;;4897093;29;20024;-72
2023/03/28 04:55:49;;;;;;;17.30;2.67;;;;;;;;;;4894732;29;20032;-72
2023/03/28 04:58:19;;;;;;;14.73;2.20;;;;;;;;;;4895254;29;20375;-71
2023/03/28 05:00:45;;;;;;;10.13;3.15;;;;;;;;;;4891358;29;20129;-71
2023/03/28 05:03:13;;;;;;;11.32;2.38;;;;;;;;;;4895436;29;20362;-72
2023/03/28 05:05:40;;;;;;;10.27;2.78;;;;;;;;;;4891160;29;20103;-72
2023/03/28 05:08:08;;;;;;;14.70;2.70;;;;;;;;;;4892018;29;20365;-72
2023/03/28 05:10:34;;;;;;;16.63;3.17;;;;;;;;;;4890831;29;20032;-72
2023/03/28 05:13:01;;;;;;;13.38;3.03;;;;;;;;;;4886823;29;20032;-72
2023/03/28 05:15:27;;;;;;;25.70;2.55;;;;;;;;;;4894779;29;20033;-72
2023/03/28 05:17:53;;;;;;;19.70;2.40;;;;;;;;;;4895560;29;20072;-72
2023/03/28 05:20:19;;;;;;;11.20;2.50;;;;;;;;;;4910123;29;20064;-72
2023/03/28 05:22:46;;;;;;;14.48;3.53;;;;;;;;;;4895549;29;20206;-72
2023/03/28 05:25:13;;;;;;;23.42;3.13;;;;;;;;;;4915971;29;20036;-72
2023/03/28 05:27:39;;;;;;;13.80;2.83;;;;;;;;;;4890481;29;20032;-72
2023/03/28 05:30:06;;;;;;;12.88;3.65;;;;;;;;;;4889610;29;20414;-73
2023/03/28 05:32:32;;;;;;;16.38;4.03;;;;;;;;;;4890840;29;20044;-72
2023/03/28 05:34:58;;;;;;;11.60;3.00;;;;;;;;;;4893600;29;20047;-73
2023/03/28 05:37:24;;;;;;;12.93;2.60;;;;;;;;;;4895406;29;20044;-73
2023/03/28 05:39:50;;;;;;;13.68;2.75;;;;;;;;;;4895822;29;20091;-73
2023/03/28 05:42:16;;;;;;;26.27;7.85;;;;;;;;;;4886988;29;20037;-73
2023/03/28 05:44:43;;;;;;;25.63;9.48;;;;;;;;;;4894936;29;20484;-73
2023/03/28 05:47:09;;;;;;;14.80;3.65;;;;;;;;;;4890585;29;20185;-73
2023/03/28 05:49:36;;;;;;;13.23;3.67;;;;;;;;;;4892428;29;20083;-73
2023/03/28 05:52:05;;;;;;;10.20;3.05;;;;;;;;;;4891231;29;20382;-73
2023/03/28 05:54:31;;;;;;;10.80;4.03;;;;;;;;;;4912273;29;20036;-73
2023/03/28 05:56:58;;;;;;;27.52;5.63;;;;;;;;;;4890869;29;20060;-74
2023/03/28 05:59:24;;;;;;;24.27;5.75;;;;;;;;;;4879177;29;20068;-73
2023/03/28 06:01:51;;;;;;;19.58;6.95;;;;;;;;;;4890984;29;20088;-72
2023/03/28 06:04:17;;;;;;;29.08;6.88;;;;;;;;;;4881119;29;20501;-72
2023/03/28 06:06:44;;;;;;;22.70;5.00;;;;;;;;;;4889146;29;20115;-73
2023/03/28 06:09:11;;;;;;;17.48;4.93;;;;;;;;;;4913823;29;20036;-72
2023/03/28 06:11:37;;;;;;;15.68;4.70;;;;;;;;;;4889411;29;20025;-73
2023/03/28 06:14:03;;;;;;;62.92;26.40;;;;;;;;;;4890092;29;20088;-72
2023/03/28 06:16:29;;;;;;;13.20;3.88;;;;;;;;;;4894490;29;20036;-73
2023/03/28 06:18:55;;;;;;;13.88;4.32;;;;;;;;;;4893321;29;20024;-72
2023/03/28 06:21:21;;;;;;;13.65;3.05;;;;;;;;;;4892908;29;20056;-72
2023/03/28 06:23:47;;;;;;;22.88;4.50;;;;;;;;;;4884990;29;20186;-72
2023/03/28 06:26:14;;;;;;;15.35;3.95;;;;;;;;;;4885773;29;20060;-75
2023/03/28 06:28:40;;;;;;;13.63;4.22;;;;;;;;;;4888751;29;20168;-73
2023/03/28 06:31:07;;;;;;;16.08;3.83;;;;;;;;;;4883610;29;20048;-75
2023/03/28 06:33:33;;;;;;;17.70;3.22;;;;;;;;;;4891619;29;20088;-72
2023/03/28 06:36:00;;;;;;;9.98;3.75;;;;;;;;;;4894390;29;20052;-72
2023/03/28 06:38:26;;;;;;;14.75;2.88;;;;;;;;;;4896743;29;20618;-72
2023/03/28 06:40:52;;;;;;;16.35;4.70;;;;;;;;;;4900323;29;20036;-73
2023/03/28 06:43:18;;;;;;;13.38;4.00;;;;;;;;;;4889134;29;20623;-73
2023/03/28 06:45:44;;;;;;;14.45;3.10;;;;;;;;;;4887850;29;20085;-74
2023/03/28 06:48:10;;;;;;;9.55;2.10;;;;;;;;;;4898216;29;20044;-74
2023/03/28 06:50:37;;;;;;;9.80;3.63;;;;;;;;;;4897202;29;20043;-74
2023/03/28 06:53:03;;;;;;;152.18;74.32;;;;;;;;;;4893235;29;20025;-77
2023/03/28 06:55:29;;;;;;;16.75;4.25;;;;;;;;;;4889803;29;20096;-77
2023/03/28 06:57:56;;;;;;;266.48;157.05;;;;;;;;;;4909129;29;20036;-75
2023/03/28 07:00:22;;;;;;;17.48;5.30;;;;;;;;;;4896030;29;20250;-70
2023/03/28 07:02:48;;;;;;;16.02;3.10;;;;;;;;;;4893930;29;20069;-71
2023/03/28 07:05:15;;;;;;;26.83;4.85;;;;;;;;;;4911734;29;20023;-72
2023/03/28 07:07:42;;;;;;;12.55;3.80;;;;;;;;;;4926666;29;20035;-72
2023/03/28 07:10:08;;;;;;;13.57;3.47;;;;;;;;;;4928098;29;20073;-74
2023/03/28 07:12:34;;;;;;;12.63;2.97;;;;;;;;;;4896068;29;20052;-73
2023/03/28 07:15:00;;;;;;;12.35;2.70;;;;;;;;;;4897302;29;20073;-72
2023/03/28 07:17:27;;;;;;;10.68;2.90;;;;;;;;;;4893769;29;20192;-72
2023/03/28 07:19:53;;;;;;;14.57;3.47;;;;;;;;;;4910921;29;20474;-72
2023/03/28 07:22:19;;;;;;;13.40;3.10;;;;;;;;;;4891854;29;20062;-72
2023/03/28 07:24:45;;;;;;;12.25;2.45;;;;;;;;;;4926508;29;20052;-73
2023/03/28 07:27:11;;;;;;;8.75;2.42;;;;;;;;;;4873710;29;20033;-73
2023/03/28 07:29:37;;;;;;;10.45;2.90;;;;;;;;;;4891356;29;20028;-73
2023/03/28 07:32:04;;;;;;;18.55;2.65;;;;;;;;;;4898165;29;20039;-74
2023/03/28 07:34:30;;;;;;;7.65;2.22;;;;;;;;;;4884394;29;20470;-72
2023/03/28 07:36:56;;;;;;;7.03;2.58;;;;;;;;;;4897475;29;20358;-72
2023/03/28 07:39:23;;;;;;;17.23;4.63;;;;;;;;;;4886356;29;20028;-74
2023/03/28 07:41:49;;;;;;;9.45;2.08;;;;;;;;;;4904105;29;20119;-73
2023/03/28 07:44:15;;;;;;;10.95;2.47;;;;;;;;;;4894582;29;20059;-73
2023/03/28 07:46:42;;;;;;;8.57;2.22;;;;;;;;;;4872663;29;20180;-72
2023/03/28 07:49:09;;;;;;;8.90;1.63;;;;;;;;;;4885870;29;20017;-73
2023/03/28 07:51:36;;;;;;;8.23;1.92;;;;;;;;;;4909618;29;20035;-72
2023/03/28 07:54:03;;;;;;;4.38;1.45;;;;;;;;;;4920708;29;20032;-72
2023/03/28 07:56:30;;;;;;;4.85;1.40;;;;;;;;;;4887884;29;20047;-73
2023/03/28 07:58:56;;;;;;;7.97;1.73;;;;;;;;;;4893488;29;20049;-72
2023/03/28 08:01:22;;;;;;;7.38;1.33;;;;;;;;;;4889417;29;20024;-73
2023/03/28 08:03:49;;;;;;;5.78;0.95;;;;;;;;;;4901232;29;20059;-73
2023/03/28 08:06:16;;;;;;;7.30;1.30;;;;;;;;;;4890958;29;20031;-74
2023/03/28 08:08:42;;;;;;;8.63;1.15;;;;;;;;;;4892894;29;20482;-74
2023/03/28 08:11:11;;;;;;;5.63;1.25;;;;;;;;;;4881743;29;20060;-75
2023/03/28 08:13:37;;;;;;;6.40;1.35;;;;;;;;;;4907108;29;20367;-70
2023/03/28 08:16:03;;;;;;;4.50;1.02;;;;;;;;;;4879038;29;20041;-70
2023/03/28 08:18:29;;;;;;;7.65;0.95;;;;;;;;;;4888750;29;20037;-74
2023/03/28 08:21:00;;;;;;;8.85;2.13;;;;;;;;;;4895373;29;20037;-71
2023/03/28 08:23:27;;;;;;;9.80;3.03;;;;;;;;;;4893363;29;20055;-70
2023/03/28 08:26:03;;;;;;;6.28;0.88;;;;;;;;;;4878432;29;20117;-73
2023/03/28 08:28:30;;;;;;;4.03;0.82;;;;;;;;;;4902528;29;20064;-73
2023/03/28 08:30:56;;;;;;;4.22;1.08;;;;;;;;;;4892043;29;20059;-72
2023/03/28 08:33:22;;;;;;;5.40;1.02;;;;;;;;;;4910295;29;20120;-72
2023/03/28 08:35:51;;;;;;;4.93;1.00;;;;;;;;;;4925698;29;20088;-72
2023/03/28 08:38:17;;;;;;;6.07;0.90;;;;;;;;;;4893963;29;20035;-73
2023/03/28 08:40:46;;;;;;;3.97;0.98;;;;;;;;;;4923576;29;20374;-72
2023/03/28 08:43:26;;;;;;;4.88;1.63;;;;;;;;;;4898809;29;20093;-73
2023/03/28 08:45:56;;;;;;;3.78;0.68;;;;;;;;;;4905778;29;20052;-72
2023/03/28 08:48:25;;;;;;;7.18;0.80;;;;;;;;;;4913045;29;20025;-70
2023/03/28 08:51:02;;;;;;;4.75;0.90;;;;;;;;;;4896158;29;20087;-72
2023/03/28 08:53:33;;;;;;;5.25;0.70;;;;;;;;;;4911454;29;20456;-71
2023/03/28 08:56:03;;;;;;;6.30;0.63;;;;;;;;;;4886332;29;20028;-72
2023/03/28 08:58:33;;;;;;;3.20;0.55;;;;;;;;;;4886455;29;20036;-72
2023/03/28 09:01:00;;;;;;;6.80;0.90;;;;;;;;;;4892509;29;20128;-72
2023/03/28 09:03:26;;;;;;;8.45;3.90;;;;;;;;;;4884881;29;20024;-74
2023/03/28 09:05:53;;;;;;;8.05;3.05;;;;;;;;;;4913055;29;20028;-76
2023/03/28 09:08:27;;;;;;;11.90;1.13;;;;;;;;;;4885149;29;20080;-73
2023/03/28 09:10:53;;;;;;;4.55;0.63;;;;;;;;;;4884437;29;20537;-72
2023/03/28 09:13:23;;;;;;;7.38;0.68;;;;;;;;;;4892468;29;20028;-74
2023/03/28 09:15:58;;;;;;;2.38;1.50;;;;;;;;;;4925571;29;20017;-72
2023/03/28 09:18:44;;;;;;;4.70;1.00;;;;;;;;;;4886277;29;20032;-73
2023/03/28 09:21:18;;;;;;;7.47;1.48;;;;;;;;;;4910929;29;20020;-73
2023/03/28 09:23:50;;;;;;;4.28;1.48;;;;;;;;;;4907614;29;20523;-73
2023/03/28 09:26:17;;;;;;;3.22;0.68;;;;;;;;;;4894095;29;20537;-72
2023/03/28 09:29:02;;;;;;;2.63;1.20;;;;;;;;;;4895417;29;20028;-72
2023/03/28 09:31:37;;;;;;;4.10;1.10;;;;;;;;;;4891983;29;20496;-73
2023/03/28 09:34:05;;;;;;;3.67;1.23;;;;;;;;;;4881965;29;20060;-72
2023/03/28 09:36:32;;;;;;;3.97;0.80;;;;;;;;;;4890721;29;20020;-72
2023/03/28 09:39:00;;;;;;;4.28;1.70;;;;;;;;;;4885195;29;20111;-73
2023/03/28 09:41:32;;;;;;;7.82;1.50;;;;;;;;;;4890629;29;20024;-71
2023/03/28 09:44:00;;;;;;;3.05;1.40;;;;;;;;;;4904203;29;20186;-72
2023/03/28 09:46:30;;;;;;;4.53;1.38;;;;;;;;;;4887104;29;20080;-72
2023/03/28 09:48:56;;;;;;;7.20;1.40;;;;;;;;;;4888769;29;20347;-73
2023/03/28 09:51:23;;;;;;;4.80;1.55;;;;;;;;;;4887111;29;20569;-73
2023/03/28 09:53:49;;;;;;;5.78;1.60;;;;;;;;;;4883084;29;20036;-71
2023/03/28 09:56:27;;;;;;;14.82;2.05;;;;;;;;;;4881032;29;20379;-72
2023/03/28 09:58:58;;;;;;;5.45;1.60;;;;;;;;;;4884296;29;20028;-73
2023/03/28 10:01:26;;;;;;;6.43;1.60;;;;;;;;;;4887402;29;20033;-72
2023/03/28 10:03:53;;;;;;;7.15;1.75;;;;;;;;;;4882281;29;20548;-74
2023/03/28 10:06:23;;;;;;;6.82;1.40;;;;;;;;;;4896069;29;20494;-75
2023/03/28 10:08:49;;;;;;;11.68;3.03;;;;;;;;;;4882447;29;20035;-74
2023/03/28 10:11:17;;;;;;;8.52;2.15;;;;;;;;;;4897453;29;20173;-74
2023/03/28 10:13:48;;;;;;;6.70;2.00;;;;;;;;;;4889473;29;20029;-72
2023/03/28 10:16:15;;;;;;;6.15;1.48;;;;;;;;;;4923269;29;20088;-74
2023/03/28 10:18:42;;;;;;;5.90;1.33;;;;;;;;;;4879127;29;20100;-73
2023/03/28 10:21:20;;;;;;;5.60;1.35;;;;;;;;;;4890561;29;20041;-74
2023/03/28 10:23:58;;;;;;;7.38;1.48;;;;;;;;;;4883786;29;20465;-74
2023/03/28 10:26:26;;;;;;;4.90;1.35;;;;;;;;;;4899286;29;20061;-74
2023/03/28 10:28:53;;;;;;;6.20;1.30;;;;;;;;;;4868738;29;20048;-74
2023/03/28 10:31:22;;;;;;;2.65;1.13;;;;;;;;;;4894976;29;20021;-72
2023/03/28 10:33:51;;;;;;;6.22;1.60;;;;;;;;;;4884570;29;20124;-75
2023/03/28 10:36:36;;;;;;;6.60;1.33;;;;;;;;;;4878798;29;20351;-72
2023/03/28 10:39:19;;;;;;;4.22;1.23;;;;;;;;;;4916873;29;20127;-72
2023/03/28 10:41:54;;;;;;;5.28;1.48;;;;;;;;;;4888562;29;20135;-72
2023/03/28 10:44:26;;;;;;;6.78;1.73;;;;;;;;;;4897326;29;20513;-73
2023/03/28 10:46:53;;;;;;;7.38;1.98;;;;;;;;;;4895877;29;20060;-73
2023/03/28 10:49:20;;;;;;;5.03;1.73;;;;;;;;;;4880234;29;20383;-72
2023/03/28 10:51:46;;;;;;;6.72;2.00;;;;;;;;;;4896500;29;20029;-73
2023/03/28 10:54:20;;;;;;;4.85;1.77;;;;;;;;;;4897659;29;20478;-74
2023/03/28 10:56:57;;;;;;;6.20;1.90;;;;;;;;;;4893273;29;20359;-73
2023/03/28 10:59:49;;;;;;;2.25;1.42;;;;;;;;;;4893063;29;20131;-74
2023/03/28 11:02:34;;;;;;;32.47;15.65;;;;;;;;;;4884298;29;20036;-75
2023/03/28 11:05:09;;;;;;;10.52;2.13;;;;;;;;;;4884467;29;20032;-77
2023/03/28 11:07:38;;;;;;;3.92;1.60;;;;;;;;;;4877521;29;20035;-75
2023/03/28 11:10:18;;;;;;;7.20;1.70;;;;;;;;;;4894928;29;20033;-79
2023/03/28 11:12:47;;;;;;;5.03;1.70;;;;;;;;;;4882269;29;20041;-74
2023/03/28 11:15:13;;;;;;;5.72;1.80;;;;;;;;;;4886184;29;20041;-77
2023/03/28 11:17:48;;;;;;;5.80;1.83;;;;;;;;;;4907014;29;20028;-76
2023/03/28 11:20:20;;;;;;;16.65;2.40;;;;;;;;;;4894860;29;20043;-75
2023/03/28 11:23:01;;;;;;;22.95;2.90;;;;;;;;;;4896991;29;20508;-76
2023/03/28 11:25:46;;;;;;;7.32;2.70;;;;;;;;;;4928836;29;20056;-77
2023/03/28 11:28:12;;;;;;;7.28;2.08;;;;;;;;;;4896859;29;20527;-76
2023/03/28 11:30:40;;;;;;;6.70;2.03;;;;;;;;;;4896377;29;20041;-75
2023/03/28 11:33:10;;;;;;;5.18;1.55;;;;;;;;;;4895837;29;20025;-76
2023/03/28 11:35:41;;;;;;;6.25;1.77;;;;;;;;;;4881231;29;20286;-77
2023/03/28 11:38:11;;;;;;;5.80;1.77;;;;;;;;;;4910809;29;20032;-75
2023/03/28 11:40:44;;;;;;;4.68;1.80;;;;;;;;;;4884576;29;20481;-76
2023/03/28 11:43:12;;;;;;;5.93;1.73;;;;;;;;;;4879745;29;20025;-76
2023/03/28 11:45:40;;;;;;;7.22;2.28;;;;;;;;;;4898464;29;20029;-76
2023/03/28 11:48:09;;;;;;;7.68;2.17;;;;;;;;;;4896770;29;20470;-77
2023/03/28 11:50:43;;;;;;;5.57;2.10;;;;;;;;;;4881289;29;20184;-75
2023/03/28 11:53:17;;;;;;;6.72;1.85;;;;;;;;;;4894951;29;20512;-76
2023/03/28 11:55:59;;;;;;;4.18;2.28;;;;;;;;;;4894635;29;20035;-76
2023/03/28 11:58:27;;;;;;;5.72;2.20;;;;;;;;;;4895499;29;20033;-75
2023/03/28 12:01:11;;;;;;;9.18;3.00;;;;;;;;;;4894881;29;20077;-76
2023/03/28 12:03:47;;;;;;;10.82;2.70;;;;;;;;;;4895117;29;20052;-79
2023/03/28 12:06:22;;;;;;;8.02;2.88;;;;;;;;;;4896666;29;20020;-76
2023/03/28 12:08:57;;;;;;;5.38;2.20;;;;;;;;;;4912043;29;20020;-76
2023/03/28 12:11:30;;;;;;;7.45;2.35;;;;;;;;;;4896701;29;20037;-75
2023/03/28 12:14:17;;;;;;;4.85;2.10;;;;;;;;;;4908416;29;20040;-76
2023/03/28 12:16:48;;;;;;;6.95;1.90;;;;;;;;;;4895904;29;20029;-75
2023/03/28 12:19:17;;;;;;;7.82;2.13;;;;;;;;;;4890131;29;20029;-76
2023/03/28 12:21:45;;;;;;;7.90;2.22;;;;;;;;;;4896154;29;20264;-74
2023/03/28 12:24:33;;;;;;;7.70;1.73;;;;;;;;;;4895530;29;20119;-74
2023/03/28 12:27:25;;;;;;;12.50;2.22;;;;;;;;;;4895692;29;20107;-75
2023/03/28 12:30:04;;;;;;;8.93;1.98;;;;;;;;;;4885324;29;20505;-76
2023/03/28 12:32:47;;;;;;;4.68;2.03;;;;;;;;;;4912057;29;20032;-77
2023/03/28 12:35:17;;;;;;;10.30;2.33;;;;;;;;;;4891232;29;20029;-75
2023/03/28 12:38:03;;;;;;;4.00;2.33;;;;;;;;;;4894498;29;20071;-75
2023/03/28 12:40:48;;;;;;;6.78;1.85;;;;;;;;;;4910658;29;20036;-76
2023/03/28 12:43:15;;;;;;;10.15;2.10;;;;;;;;;;4895735;29;20426;-74
2023/03/28 12:45:45;;;;;;;4.97;2.03;;;;;;;;;;4892190;29;20020;-74
2023/03/28 12:48:14;;;;;;;4.45;1.85;;;;;;;;;;4911007;29;20080;-77
2023/03/28 12:50:49;;;;;;;6.50;2.40;;;;;;;;;;4894138;29;20466;-75
2023/03/28 12:53:16;;;;;;;7.65;2.20;;;;;;;;;;4892811;29;20119;-75
2023/03/28 12:55:44;;;;;;;6.93;2.33;;;;;;;;;;4895352;29;20029;-75
2023/03/28 12:58:13;;;;;;;11.27;3.85;;;;;;;;;;4912006;29;20029;-76
2023/03/28 13:00:46;;;;;;;9.00;2.40;;;;;;;;;;4893148;29;20553;-75
2023/03/28 13:03:23;;;;;;;5.53;2.25;;;;;;;;;;4895621;29;20032;-75
2023/03/28 13:05:49;;;;;;;6.57;2.53;;;;;;;;;;4908228;29;20055;-76
2023/03/28 13:08:20;;;;;;;6.35;2.17;;;;;;;;;;4891952;29;20033;-75
2023/03/28 13:11:13;;;;;;;5.80;2.30;;;;;;;;;;4894776;29;20020;-75
2023/03/28 13:13:42;;;;;;;7.75;2.17;;;;;;;;;;4869390;29;20040;-75
2023/03/28 13:16:16;;;;;;;7.93;2.95;;;;;;;;;;4895634;29;20029;-76
2023/03/28 13:18:46;;;;;;;5.60;2.15;;;;;;;;;;4894879;29;20017;-74
2023/03/28 13:21:32;;;;;;;9.10;2.20;;;;;;;;;;4894387;29;20039;-75
2023/03/28 13:23:59;;;;;;;7.25;2.10;;;;;;;;;;4908713;29;20028;-74
2023/03/28 13:26:25;;;;;;;7.88;2.47;;;;;;;;;;4894658;29;20053;-75
2023/03/28 13:28:59;;;;;;;8.05;2.20;;;;;;;;;;4894997;29;20024;-75
2023/03/28 13:31:26;;;;;;;6.05;2.00;;;;;;;;;;4893621;29;20044;-74
2023/03/28 13:33:57;;;;;;;7.70;2.97;;;;;;;;;;4910837;29;20040;-75
2023/03/28 13:36:24;;;;;;;7.28;2.28;;;;;;;;;;4894434;29;20067;-77
2023/03/28 13:38:57;;;;;;;5.00;1.90;;;;;;;;;;4890786;29;20079;-77
2023/03/28 13:41:41;;;;;;;4.68;2.00;;;;;;;;;;4908214;29;20021;-75
2023/03/28 13:44:13;;;;;;;9.27;2.63;;;;;;;;;;4894326;29;20121;-75
2023/03/28 13:46:41;;;;;;;9.40;2.83;;;;;;;;;;4894788;29;20373;-77
2023/03/28 13:49:10;;;;;;;5.18;2.38;;;;;;;;;;4910491;29;20085;-75
2023/03/28 13:51:38;;;;;;;10.55;2.80;;;;;;;;;;4894195;29;20072;-75
2023/03/28 13:54:05;;;;;;;8.15;3.10;;;;;;;;;;4893208;29;20028;-76
2023/03/28 13:56:32;;;;;;;6.80;2.80;;;;;;;;;;4893356;29;20746;-74
2023/03/28 13:59:00;;;;;;;9.90;3.10;;;;;;;;;;4892072;29;20051;-75
2023/03/28 14:01:33;;;;;;;8.98;3.15;;;;;;;;;;4892711;29;20032;-76
2023/03/28 14:03:59;;;;;;;;;;;;;;;;;;4893826;29;20083;-75
2023/03/28 14:06:26;;;;;;;8.77;3.33;;;;;;;;;;4894278;29;19911;-75
2023/03/28 14:08:53;;;;;;;7.20;2.78;;;;;;;;;;4910493;29;20032;-75
2023/03/28 14:11:29;;;;;;;10.23;2.83;;;;;;;;;;4892545;29;20084;-75
2023/03/28 14:13:59;;;;;;;4.57;2.83;;;;;;;;;;4891769;29;20037;-74
2023/03/28 14:16:26;;;;;;;5.00;2.40;;;;;;;;;;4876770;29;20036;-75
2023/03/28 14:18:52;;;;;;;6.00;2.20;;;;;;;;;;4893627;29;20151;-75
2023/03/28 14:21:19;;;;;;;5.25;2.60;;;;;;;;;;4894538;29;20036;-74
2023/03/28 14:23:57;;;;;;;6.93;2.45;;;;;;;;;;4897792;29;20037;-75
2023/03/28 14:26:25;;;;;;;8.75;2.15;;;;;;;;;;4907122;29;20056;-75
2023/03/28 14:28:52;;;;;;;7.32;2.13;;;;;;;;;;4899492;29;20370;-74
2023/03/28 14:31:51;;;;;;;4.20;2.10;;;;;;;;;;4907385;29;20032;-74
2023/03/28 14:34:20;;;;;;;5.05;1.77;;;;;;;;;;4883406;29;20524;-75
2023/03/28 14:37:05;;;;;;;8.65;2.95;;;;;;;;;;4880297;29;20024;-74
2023/03/28 14:39:32;;;;;;;8.55;2.60;;;;;;;;;;4908184;29;20131;-74
2023/03/28 14:42:00;;;;;;;6.43;2.63;;;;;;;;;;4893330;29;20115;-75
2023/03/28 14:44:28;;;;;;;12.32;2.63;;;;;;;;;;4893925;29;20374;-74
2023/03/28 14:46:56;;;;;;;8.25;2.33;;;;;;;;;;4892576;29;20031;-75
2023/03/28 14:49:24;;;;;;;5.32;1.90;;;;;;;;;;4889083;29;20037;-74
2023/03/28 14:51:54;;;;;;;6.68;2.35;;;;;;;;;;4893748;29;20032;-74